Time;durP1;ratioP1;P1;durP2;ratioP2;P2;SDS_P1;SDS_P2;PMS_P1;PMS_P2;Temp;Humidity;BMP_temperature;BMP_pressure;BME280_temperature;BME280_humidity;BME280_pressure;Samples;Min_cycle;Max_cycle;Signal;HPM_P1;HPM_P2
2021/03/24 00:00:59;;;;;;;22.63;11.70;;;;;;;4.13;71.52;99799.32;114375;1193;64362;-86
2021/03/24 00:03:27;;;;;;;22.20;12.05;;;;;;;4.12;71.15;99800.23;114347;1193;64461;-83
2021/03/24 00:05:53;;;;;;;20.30;12.50;;;;;;;4.10;71.30;99799.44;114719;1193;64339;-86
2021/03/24 00:08:21;;;;;;;19.97;11.13;;;;;;;4.11;71.39;99802.02;114346;1192;64435;-83
2021/03/24 00:10:49;;;;;;;20.00;10.60;;;;;;;4.14;70.89;99806.36;114403;1192;64298;-83
2021/03/24 00:13:16;;;;;;;23.30;11.05;;;;;;;4.16;71.25;99807.16;114557;1193;64286;-85
2021/03/24 00:15:43;;;;;;;23.20;12.40;;;;;;;4.17;71.25;99808.89;114331;1193;64446;-84
2021/03/24 00:18:10;;;;;;;18.47;10.67;;;;;;;4.15;71.17;99808.09;114504;1193;64395;-87
2021/03/24 00:20:40;;;;;;;21.23;12.30;;;;;;;4.13;71.03;99807.25;114345;1193;64457;-85
2021/03/24 00:23:06;;;;;;;21.03;11.37;;;;;;;4.12;71.00;99797.59;114470;1193;64363;-87
2021/03/24 00:25:34;;;;;;;17.67;10.87;;;;;;;4.10;71.31;99802.08;114330;1193;64468;-86
2021/03/24 00:28:00;;;;;;;18.77;10.53;;;;;;;4.08;71.32;99796.00;114448;1193;64429;-84
2021/03/24 00:30:31;;;;;;;19.63;11.27;;;;;;;4.04;71.17;99798.72;114541;1193;64305;-83
2021/03/24 00:32:58;;;;;;;19.30;10.90;;;;;;;4.03;71.16;99799.64;114317;1193;64295;-86
2021/03/24 00:35:25;;;;;;;20.60;10.93;;;;;;;4.03;71.41;99791.72;114385;1193;64725;-84
2021/03/24 00:37:52;;;;;;;21.80;11.47;;;;;;;4.02;71.30;99789.99;114314;1192;64438;-83
2021/03/24 00:40:24;;;;;;;23.50;11.20;;;;;;;4.03;71.38;99788.21;114406;1193;64467;-87
2021/03/24 00:42:51;;;;;;;24.90;12.87;;;;;;;4.02;71.22;99787.35;114403;1193;64423;-85
2021/03/24 00:45:18;;;;;;;25.93;13.17;;;;;;;4.02;71.30;99779.42;114557;1192;64446;-85
2021/03/24 00:47:44;;;;;;;23.13;11.80;;;;;;;4.02;71.78;99783.84;114498;1193;64417;-86
2021/03/24 00:50:15;;;;;;;25.43;13.00;;;;;;;4.01;71.46;99780.34;114335;1193;64307;-84
2021/03/24 00:52:42;;;;;;;21.40;12.20;;;;;;;4.00;71.51;99778.59;114352;1193;64348;-83
2021/03/24 00:55:10;;;;;;;23.90;12.40;;;;;;;3.98;71.29;99775.14;114390;1192;64343;-84
2021/03/24 00:57:37;;;;;;;18.35;11.00;;;;;;;3.95;71.18;99769.98;114374;1193;64449;-85
2021/03/24 01:00:20;;;;;;;20.60;11.00;;;;;;;3.93;71.53;99770.92;114541;1193;64301;-84
2021/03/24 01:02:46;;;;;;;21.90;11.50;;;;;;;3.93;71.47;99777.07;114486;1193;64468;-87
2021/03/24 01:05:17;;;;;;;18.20;11.25;;;;;;;3.94;71.42;99772.65;114341;1192;64446;-83
2021/03/24 01:07:48;;;;;;;16.37;9.50;;;;;;;3.96;71.59;99773.48;114356;1193;64459;-84
2021/03/24 01:10:19;;;;;;;20.33;11.47;;;;;;;3.98;71.19;99774.28;114458;1193;64436;-83
2021/03/24 01:12:46;;;;;;;17.37;10.43;;;;;;;4.01;71.48;99769.77;114397;1193;64311;-87
2021/03/24 01:15:14;;;;;;;20.70;11.57;;;;;;;4.03;71.48;99767.93;114374;1193;64448;-83
2021/03/24 01:17:41;;;;;;;21.15;12.55;;;;;;;4.04;71.64;99769.66;114507;1193;64369;-87
2021/03/24 01:20:09;;;;;;;23.95;12.40;;;;;;;4.03;71.44;99778.50;114566;1193;64419;-84
2021/03/24 01:22:35;;;;;;;24.30;11.93;;;;;;;4.03;71.54;99775.86;114402;1193;64381;-84
2021/03/24 01:25:03;;;;;;;20.10;12.10;;;;;;;4.02;71.62;99789.13;114461;1192;64470;-85
2021/03/24 01:27:30;;;;;;;19.27;11.40;;;;;;;4.00;71.52;99778.59;114364;1193;64475;-84
2021/03/24 01:29:56;;;;;;;22.13;12.07;;;;;;;3.97;71.54;99767.27;114302;1193;64541;-89
2021/03/24 01:32:23;;;;;;;21.43;12.33;;;;;;;3.97;71.55;99767.27;114712;1193;64458;-83
2021/03/24 01:34:50;;;;;;;21.30;12.60;;;;;;;3.97;71.63;99770.78;114281;1192;65352;-85
2021/03/24 01:37:16;;;;;;;20.65;11.80;;;;;;;3.99;71.59;99761.01;114445;1193;64378;-83
2021/03/24 01:39:43;;;;;;;24.00;11.30;;;;;;;4.02;71.49;99773.27;114408;1193;64289;-84
2021/03/24 01:42:10;;;;;;;22.10;12.73;;;;;;;4.03;71.71;99767.93;114382;1193;64902;-83
2021/03/24 01:45:00;;;;;;;21.97;13.77;;;;;;;4.02;71.71;99765.34;114342;1193;64407;-84
2021/03/24 01:47:29;;;;;;;18.80;12.30;;;;;;;4.02;71.63;99768.85;114328;1193;64337;-88
2021/03/24 01:49:57;;;;;;;23.10;12.63;;;;;;;3.99;71.69;99760.15;114742;1192;64343;-85
2021/03/24 01:52:25;;;;;;;23.00;13.05;;;;;;;3.98;71.64;99759.28;114395;1193;64311;-84
2021/03/24 01:54:52;;;;;;;20.20;12.20;;;;;;;3.96;71.55;99760.27;114446;1193;64506;-83
2021/03/24 01:57:23;;;;;;;25.63;13.70;;;;;;;3.97;71.58;99767.27;114372;1193;64523;-86
2021/03/24 01:59:53;;;;;;;21.60;12.80;;;;;;;3.99;71.68;99762.79;114417;1192;64834;-87
2021/03/24 02:02:25;;;;;;;21.03;12.23;;;;;;;4.00;71.60;99762.73;114443;1193;64401;-87
2021/03/24 02:04:54;;;;;;;22.97;13.07;;;;;;;4.01;71.74;99761.84;114501;1193;64503;-84
2021/03/24 02:07:52;;;;;;;22.20;13.30;;;;;;;4.02;71.71;99766.20;114344;1193;64401;-85
2021/03/24 02:10:31;;;;;;;23.30;13.70;;;;;;;4.01;71.18;99772.41;114511;1193;64407;-88
2021/03/24 02:12:57;;;;;;;26.13;14.27;;;;;;;3.98;71.67;99774.28;114440;1193;64346;-87
2021/03/24 02:15:32;;;;;;;26.20;15.33;;;;;;;3.96;71.56;99765.55;114422;1193;64356;-84
2021/03/24 02:18:02;;;;;;;23.65;13.85;;;;;;;3.94;71.70;99770.00;114719;1193;64289;-89
2021/03/24 02:20:36;;;;;;;22.07;12.63;;;;;;;3.93;71.48;99769.14;114441;1192;64449;-86
2021/03/24 02:23:15;;;;;;;23.67;13.17;;;;;;;3.93;71.96;99776.20;114521;1193;64333;-85
2021/03/24 02:26:01;;;;;;;25.50;13.13;;;;;;;3.94;71.67;99777.94;114398;1193;64397;-84
2021/03/24 02:28:30;;;;;;;22.20;12.00;;;;;;;3.95;72.13;99771.76;114642;1192;64356;-83
2021/03/24 02:30:58;;;;;;;24.23;14.43;;;;;;;3.97;72.24;99773.42;114392;1193;64369;-85
2021/03/24 02:33:30;;;;;;;21.13;12.80;;;;;;;3.98;71.88;99769.86;114273;1193;64895;-84
2021/03/24 02:36:01;;;;;;;25.83;14.43;;;;;;;3.98;71.88;99771.64;114298;1192;64395;-84
2021/03/24 02:38:30;;;;;;;25.83;14.23;;;;;;;3.96;71.94;99769.05;114491;1193;64397;-84
2021/03/24 02:40:59;;;;;;;27.97;14.27;;;;;;;3.94;71.98;99770.87;114345;1193;64359;-88
2021/03/24 02:43:27;;;;;;;26.80;13.45;;;;;;;3.94;71.86;99770.00;114356;1193;64376;-89
2021/03/24 02:45:55;;;;;;;24.70;13.25;;;;;;;3.95;72.08;99764.69;114478;1193;64381;-84
2021/03/24 02:48:29;;;;;;;24.50;14.05;;;;;;;3.94;71.73;99752.37;114399;1193;64448;-85
2021/03/24 02:50:58;;;;;;;26.00;13.90;;;;;;;3.94;72.00;99752.37;114351;1193;64443;-84
2021/03/24 02:53:28;;;;;;;25.05;13.55;;;;;;;3.93;72.17;99755.07;114556;1193;64350;-83
2021/03/24 02:55:58;;;;;;;29.07;14.30;;;;;;;3.94;72.17;99757.65;114532;1193;64318;-86
2021/03/24 02:58:25;;;;;;;25.13;14.47;;;;;;;3.96;72.22;99765.55;114317;1193;64375;-85
2021/03/24 03:00:52;;;;;;;27.83;15.57;;;;;;;3.95;72.01;99767.33;114445;1192;64298;-85
2021/03/24 03:03:30;;;;;;;26.50;13.70;;;;;;;3.92;72.04;99770.06;114318;1193;64403;-84
2021/03/24 03:05:58;;;;;;;31.10;15.70;;;;;;;3.91;72.02;99770.98;114322;1193;64385;-86
2021/03/24 03:08:35;;;;;;;24.43;14.37;;;;;;;3.90;72.14;99765.76;114831;1193;64388;-84
2021/03/24 03:11:22;;;;;;;25.05;13.75;;;;;;;3.93;72.27;99774.43;114389;1193;64365;-84
2021/03/24 03:13:53;;;;;;;23.70;13.50;;;;;;;3.93;72.01;99766.50;114375;1193;64339;-83
2021/03/24 03:16:39;;;;;;;28.07;14.87;;;;;;;3.97;72.25;99772.56;114712;1193;64443;-88
2021/03/24 03:19:24;;;;;;;24.95;14.50;;;;;;;4.00;72.32;99764.52;114336;1193;64289;-86
2021/03/24 03:21:59;;;;;;;24.67;14.63;;;;;;;4.02;72.09;99765.34;114421;1193;64292;-83
2021/03/24 03:24:30;;;;;;;27.97;13.80;;;;;;;4.02;72.07;99760.92;114434;1193;64723;-84
2021/03/24 03:27:01;;;;;;;27.00;14.87;;;;;;;4.01;72.20;99769.77;114393;1193;64350;-86
2021/03/24 03:29:30;;;;;;;28.13;15.07;;;;;;;3.98;72.50;99767.22;114307;1192;64490;-88
2021/03/24 03:31:59;;;;;;;28.30;15.00;;;;;;;3.93;72.27;99750.64;114423;1193;64604;-83
2021/03/24 03:34:27;;;;;;;25.63;14.03;;;;;;;3.91;72.25;99760.41;114414;1193;64398;-83
2021/03/24 03:36:56;;;;;;;27.40;14.85;;;;;;;3.91;72.37;99757.77;114365;1193;64410;-84
2021/03/24 03:39:27;;;;;;;26.45;14.20;;;;;;;3.94;72.22;99765.58;114476;1192;64464;-82
2021/03/24 03:41:57;;;;;;;23.70;13.70;;;;;;;3.97;72.25;99757.56;114633;1193;64452;-83
2021/03/24 03:44:26;;;;;;;30.30;14.67;;;;;;;3.99;72.31;99760.15;114548;1193;64330;-83
2021/03/24 03:46:58;;;;;;;25.00;15.23;;;;;;;4.00;72.53;99754.80;114306;1193;64321;-85
2021/03/24 03:49:25;;;;;;;32.50;16.20;;;;;;;4.04;72.73;99747.64;114372;1193;64566;-88
2021/03/24 03:52:21;;;;;;;25.83;15.60;;;;;;;4.06;72.35;99751.95;114406;1192;64372;-85
2021/03/24 03:55:42;;;;;;;27.35;15.85;;;;;;;4.07;72.21;99755.45;114645;1193;64350;-85
2021/03/24 03:58:26;;;;;;;35.20;17.03;;;;;;;4.03;71.92;99762.64;114150;1196;64372;-83
2021/03/24 04:01:07;;;;;;;31.97;16.73;;;;;;;4.00;72.10;99753.94;114154;1196;64442;-84
2021/03/24 04:03:40;;;;;;;28.00;16.20;;;;;;;3.97;72.37;99757.56;114023;1196;64522;-83
2021/03/24 04:06:12;;;;;;;29.10;17.20;;;;;;;3.93;72.29;99761.22;114204;1196;64403;-85
2021/03/24 04:08:39;;;;;;;25.77;15.80;;;;;;;3.90;72.12;99756.05;114108;1196;64551;-85
2021/03/24 04:11:09;;;;;;;33.70;16.50;;;;;;;3.86;72.30;99759.70;114116;1196;64540;-85
2021/03/24 04:13:44;;;;;;;30.20;16.60;;;;;;;3.87;72.58;99764.06;114227;1196;64343;-87
2021/03/24 04:16:12;;;;;;;32.23;16.03;;;;;;;3.86;72.33;99767.63;114184;1196;64544;-83
2021/03/24 04:18:49;;;;;;;30.53;16.07;;;;;;;3.88;72.37;99763.17;114460;1196;64365;-88
2021/03/24 04:21:17;;;;;;;29.35;16.15;;;;;;;3.91;72.25;99762.20;114065;1196;64638;-85
2021/03/24 04:23:52;;;;;;;32.00;17.80;;;;;;;3.95;72.41;99769.12;114179;1196;64490;-85
2021/03/24 04:26:26;;;;;;;30.10;16.30;;;;;;;3.98;72.15;99769.00;114109;1196;64439;-84
2021/03/24 04:28:57;;;;;;;33.70;18.20;;;;;;;3.99;72.30;99765.44;114062;1196;64407;-84
2021/03/24 04:31:27;;;;;;;34.53;19.10;;;;;;;3.99;72.24;99765.44;114121;1193;64346;-85
2021/03/24 04:33:54;;;;;;;35.17;17.27;;;;;;;3.98;72.48;99775.14;114301;1193;64343;-83
2021/03/24 04:36:26;;;;;;;33.50;18.55;;;;;;;3.97;72.25;99764.63;114583;1193;64285;-86
2021/03/24 04:38:58;;;;;;;33.53;18.10;;;;;;;3.95;72.21;99769.98;114446;1193;64334;-85
2021/03/24 04:41:31;;;;;;;37.17;19.67;;;;;;;3.91;72.36;99768.34;114376;1193;64506;-83
2021/03/24 04:44:06;;;;;;;32.37;18.33;;;;;;;3.90;72.37;99771.91;114354;1193;64465;-88
2021/03/24 04:46:37;;;;;;;37.40;18.53;;;;;;;3.87;72.62;99769.34;114692;1192;64448;-82
2021/03/24 04:49:12;;;;;;;29.07;17.37;;;;;;;3.87;72.29;99771.13;114426;1193;64407;-83
2021/03/24 04:51:41;;;;;;;28.93;15.87;;;;;;;3.88;72.39;99771.10;114390;1193;64349;-84
2021/03/24 04:54:33;;;;;;;29.67;17.17;;;;;;;3.91;72.03;99773.63;114396;1193;64436;-84
2021/03/24 04:57:14;;;;;;;33.77;15.70;;;;;;;3.98;72.50;99775.14;114634;1193;64815;-88
2021/03/24 04:59:45;;;;;;;28.73;16.47;;;;;;;4.03;72.75;99777.64;114398;1193;64815;-85
2021/03/24 05:02:22;;;;;;;31.45;18.70;;;;;;;4.10;72.75;99787.09;114477;1193;64375;-83
2021/03/24 05:04:58;;;;;;;30.00;17.77;;;;;;;4.13;72.65;99783.46;114723;1193;64349;-84
2021/03/24 05:07:43;;;;;;;34.70;17.90;;;;;;;4.14;72.35;99779.93;114734;1193;64369;-83
2021/03/24 05:10:20;;;;;;;34.63;18.13;;;;;;;4.10;72.21;99784.44;114822;1192;64355;-82
2021/03/24 05:13:00;;;;;;;29.50;17.60;;;;;;;4.07;72.14;99792.45;114423;1193;64365;-85
2021/03/24 05:15:34;;;;;;;36.47;19.40;;;;;;;4.02;72.01;99792.64;114416;1193;64378;-85
2021/03/24 05:18:03;;;;;;;35.60;20.70;;;;;;;3.99;72.31;99794.50;114723;1193;64318;-85
2021/03/24 05:20:46;;;;;;;39.55;20.50;;;;;;;3.95;72.29;99793.77;114378;1193;64458;-87
2021/03/24 05:23:19;;;;;;;36.53;19.90;;;;;;;3.93;72.20;99795.56;114334;1193;64388;-84
2021/03/24 05:25:54;;;;;;;30.65;17.90;;;;;;;3.94;72.65;99793.78;114739;1193;64349;-85
2021/03/24 05:28:30;;;;;;;33.17;18.60;;;;;;;3.96;72.27;99789.34;114371;1192;64398;-86
2021/03/24 05:31:14;;;;;;;34.27;18.27;;;;;;;3.99;72.37;99797.15;114378;1192;64347;-83
2021/03/24 05:33:44;;;;;;;37.63;19.43;;;;;;;3.99;71.99;99787.44;114652;1193;64503;-88
2021/03/24 05:36:18;;;;;;;29.90;18.05;;;;;;;4.01;72.36;99790.91;114589;1192;64781;-83
2021/03/24 05:38:47;;;;;;;35.53;19.10;;;;;;;4.02;72.46;99789.99;114620;1193;64365;-81
2021/03/24 05:41:35;;;;;;;40.37;18.90;;;;;;;4.02;72.18;99797.06;115298;1193;64401;-82
2021/03/24 05:44:16;;;;;;;29.37;16.87;;;;;;;4.00;72.37;99799.73;114385;1193;64411;-88
2021/03/24 05:47:20;;;;;;;30.70;17.73;;;;;;;3.98;72.44;99788.36;114488;1193;64529;-84
2021/03/24 05:50:14;;;;;;;32.73;16.40;;;;;;;3.98;72.74;99785.72;114308;1193;64413;-85
2021/03/24 05:52:57;;;;;;;31.87;15.47;;;;;;;4.03;72.33;99788.21;114345;1193;64346;-88
2021/03/24 05:55:33;;;;;;;45.87;17.27;;;;;;;4.06;72.40;99781.02;114434;1193;64378;-85
2021/03/24 05:58:18;;;;;;;31.05;15.90;;;;;;;4.12;72.33;99792.31;114357;1193;64244;-86
2021/03/24 06:00:53;;;;;;;31.77;17.13;;;;;;;4.16;72.06;99788.66;114394;1192;64557;-87
2021/03/24 06:03:51;;;;;;;30.20;16.30;;;;;;;4.18;72.37;99789.46;114367;1193;64391;-84
2021/03/24 06:06:45;;;;;;;32.95;18.95;;;;;;;4.18;72.65;99782.39;114414;1193;64320;-85
2021/03/24 06:09:11;;;;;;;39.43;18.83;;;;;;;4.19;72.30;99785.89;114432;1193;64340;-84
2021/03/24 06:11:38;;;;;;;37.20;18.45;;;;;;;4.21;72.39;99787.59;114340;1193;64397;-87
2021/03/24 06:14:29;;;;;;;31.70;17.67;;;;;;;4.26;72.16;99784.77;114364;1193;64947;-86
2021/03/24 06:17:28;;;;;;;33.95;17.40;;;;;;;4.30;72.35;99789.03;114365;1193;64403;-85
2021/03/24 06:20:16;;;;;;;33.35;18.90;;;;;;;4.33;72.41;99779.23;114316;1193;64442;-85
2021/03/24 06:23:11;;;;;;;35.47;19.17;;;;;;;4.37;72.38;99785.26;114372;1193;64304;-83
2021/03/24 06:26:05;;;;;;;32.40;18.57;;;;;;;4.40;72.19;99790.45;114338;1192;64384;-84
2021/03/24 06:29:01;;;;;;;32.05;17.85;;;;;;;4.42;71.96;99791.25;114374;1193;64528;-87
2021/03/24 06:31:39;;;;;;;30.13;17.50;;;;;;;4.45;72.29;99785.84;114347;1193;64397;-83
2021/03/24 06:34:20;;;;;;;34.67;18.20;;;;;;;4.51;72.27;99784.77;114397;1192;64385;-85
2021/03/24 06:36:59;;;;;;;34.73;17.57;;;;;;;4.57;71.74;99789.84;114370;1192;64391;-87
2021/03/24 06:39:51;;;;;;;34.73;19.17;;;;;;;4.61;71.99;99789.68;114425;1192;63470;-88
2021/03/24 06:43:08;;;;;;;84.27;32.60;;;;;;;4.67;72.13;99790.38;114390;1192;64285;-83
2021/03/24 06:45:53;;;;;;;55.95;26.95;;;;;;;4.72;71.97;99796.38;114218;1196;64368;-83
2021/03/24 06:48:41;;;;;;;;;;;;;;;4.74;71.68;99797.17;114115;1204;64353;-84
2021/03/24 06:51:41;;;;;;;47.40;22.00;;;;;;;4.74;72.21;99800.68;114120;1196;64313;-83
2021/03/24 06:54:33;;;;;;;46.40;20.90;;;;;;;4.78;72.16;99806.73;114140;1196;64336;-87
2021/03/24 06:57:18;;;;;;;39.50;22.50;;;;;;;4.80;72.08;99816.34;114340;1196;64493;-87
2021/03/24 07:00:03;;;;;;;;;;;;;;;4.84;71.70;99814.45;114250;1203;64385;-85
2021/03/24 07:02:58;;;;;;;35.80;19.70;;;;;;;4.87;71.77;99816.97;114161;1196;64424;-84
2021/03/24 07:05:49;;;;;;;37.40;19.95;;;;;;;4.94;71.60;99821.12;113900;1199;64523;-85
2021/03/24 07:08:16;;;;;;;32.00;18.80;;;;;;;4.98;71.58;99814.80;113785;1199;64513;-84
2021/03/24 07:11:17;;;;;;;42.40;22.10;;;;;;;5.04;71.89;99816.36;113897;1200;64510;-84
2021/03/24 07:13:56;;;;;;;40.20;21.85;;;;;;;5.10;71.54;99824.08;113882;1200;64340;-84
2021/03/24 07:16:35;;;;;;;42.00;20.25;;;;;;;5.12;71.37;99823.08;113894;1199;64807;-83
2021/03/24 07:19:23;;;;;;;47.95;21.90;;;;;;;5.14;71.44;99826.52;113987;1198;64375;-83
2021/03/24 07:21:58;;;;;;;39.00;21.50;;;;;;;5.18;71.61;99829.94;114118;1196;64560;-86
2021/03/24 07:24:37;;;;;;;37.60;20.57;;;;;;;5.19;71.35;99831.66;114207;1196;64369;-83
2021/03/24 07:27:24;;;;;;;46.55;22.55;;;;;;;5.22;71.97;99828.05;114169;1195;64369;-84
2021/03/24 07:30:14;;;;;;;46.50;19.60;;;;;;;5.27;71.57;99831.36;114172;1196;64528;-85
2021/03/24 07:33:04;;;;;;;34.60;18.25;;;;;;;5.33;71.31;99837.28;114200;1196;64599;-85
2021/03/24 07:36:07;;;;;;;37.20;20.13;;;;;;;5.39;71.43;99836.19;114158;1196;64432;-87
2021/03/24 07:38:45;;;;;;;43.40;22.80;;;;;;;5.47;71.35;99831.48;114170;1196;64592;-84
2021/03/24 07:41:24;;;;;;;42.15;22.70;;;;;;;5.53;71.01;99838.30;114188;1196;64454;-84
2021/03/24 07:43:56;;;;;;;48.90;23.27;;;;;;;5.57;71.04;99835.48;114361;1193;64458;-88
2021/03/24 07:46:26;;;;;;;45.50;22.00;;;;;;;5.59;71.34;99832.77;114474;1193;64353;-84
2021/03/24 07:49:05;;;;;;;41.37;23.07;;;;;;;5.61;71.29;99838.89;114433;1193;64365;-84
2021/03/24 07:51:34;;;;;;;43.53;22.23;;;;;;;5.59;70.70;99830.97;114321;1193;64506;-86
2021/03/24 07:54:25;;;;;;;42.13;21.03;;;;;;;5.62;70.75;99830.01;114402;1193;64395;-85
2021/03/24 07:57:14;;;;;;;39.30;20.40;;;;;;;5.66;70.69;99832.48;114446;1193;64329;-83
2021/03/24 07:59:51;;;;;;;37.43;19.97;;;;;;;5.74;70.62;99834.83;114335;1193;64295;-83
2021/03/24 08:02:54;;;;;;;34.75;18.90;;;;;;;5.77;70.63;99832.03;114407;1193;64442;-84
2021/03/24 08:06:10;;;;;;;36.27;19.93;;;;;;;5.80;70.35;99833.72;114496;1193;64476;-83
2021/03/24 08:08:58;;;;;;;38.30;20.10;;;;;;;5.84;70.65;99830.86;114356;1196;64369;-83
2021/03/24 08:11:38;;;;;;;31.00;18.00;;;;;;;5.89;70.78;99836.84;114177;1196;64510;-84
2021/03/24 08:14:29;;;;;;;38.53;19.97;;;;;;;5.89;70.59;99836.84;114211;1195;64455;-82
2021/03/24 08:17:14;;;;;;;40.90;22.97;;;;;;;5.91;71.08;99831.51;114162;1196;64397;-83
2021/03/24 08:19:59;;;;;;;;;;;;;;;6.02;70.78;99831.94;114170;1202;64451;-87
2021/03/24 08:22:35;;;;;;;40.50;21.20;;;;;;;6.12;70.63;99835.09;114400;1195;64516;-82
2021/03/24 08:25:20;;;;;;;48.50;22.10;;;;;;;6.13;70.54;99832.37;114198;1196;64544;-83
2021/03/24 08:28:05;;;;;;;40.03;21.57;;;;;;;6.25;71.05;99830.14;114170;1196;64465;-83
2021/03/24 08:31:09;;;;;;;34.97;20.80;;;;;;;6.39;70.87;99825.10;114443;1196;64312;-83
2021/03/24 08:34:13;;;;;;;38.90;21.50;;;;;;;6.50;70.18;99815.76;114132;1196;64365;-84
2021/03/24 08:36:48;;;;;;;39.70;21.00;;;;;;;6.44;69.99;99834.59;114147;1196;64752;-82
2021/03/24 08:39:28;;;;;;;;;;;;;;;6.47;69.93;99830.94;114331;1202;64488;-82
2021/03/24 08:42:23;;;;;;;35.73;20.20;;;;;;;6.43;69.67;99829.36;114338;1195;64529;-85
2021/03/24 08:45:07;;;;;;;37.27;21.50;;;;;;;6.49;69.98;99823.80;114409;1193;64301;-85
2021/03/24 08:47:43;;;;;;;41.20;21.07;;;;;;;6.58;70.20;99819.86;114414;1193;64438;-84
2021/03/24 08:50:18;;;;;;;38.23;21.20;;;;;;;6.59;69.67;99818.93;114477;1193;64404;-88
2021/03/24 08:52:56;;;;;;;38.37;21.93;;;;;;;6.61;70.21;99828.53;114341;1192;64474;-86
2021/03/24 08:55:35;;;;;;;;;;;;;;;6.67;70.03;99827.41;114492;1198;64360;-84
2021/03/24 08:58:17;;;;;;;36.67;20.77;;;;;;;6.72;70.46;99822.77;114360;1192;64356;-84
2021/03/24 09:01:07;;;;;;;42.45;22.30;;;;;;;6.97;70.72;99819.89;114376;1193;64304;-84
2021/03/24 09:03:48;;;;;;;34.35;21.10;;;;;;;7.13;69.77;99823.58;114375;1193;64429;-84
2021/03/24 09:06:49;;;;;;;40.70;20.65;;;;;;;7.19;70.09;99820.65;114469;1193;64458;-84
2021/03/24 09:09:35;;;;;;;34.30;20.43;;;;;;;7.29;69.45;99816.61;114499;1193;64365;-86
2021/03/24 09:12:34;;;;;;;37.57;21.03;;;;;;;7.38;69.32;99820.66;114350;1193;64314;-83
2021/03/24 09:15:03;;;;;;;37.80;21.00;;;;;;;7.51;70.11;99820.94;114355;1193;64413;-83
2021/03/24 09:17:52;;;;;;;38.80;20.95;;;;;;;7.66;69.01;99819.34;114384;1192;64368;-84
2021/03/24 09:20:40;;;;;;;37.67;22.10;;;;;;;7.77;70.08;99822.34;114414;1192;64433;-84
2021/03/24 09:23:13;;;;;;;36.63;21.17;;;;;;;7.85;69.36;99814.85;114430;1193;64388;-87
2021/03/24 09:26:01;;;;;;;39.85;21.30;;;;;;;7.92;69.13;99813.61;114404;1193;64529;-85
2021/03/24 09:28:36;;;;;;;40.20;22.00;;;;;;;7.94;69.34;99810.87;114376;1193;64465;-86
2021/03/24 09:31:26;;;;;;;38.85;22.85;;;;;;;8.03;69.37;99810.43;114537;1193;64365;-83
2021/03/24 09:33:59;;;;;;;34.53;22.53;;;;;;;8.15;68.89;99809.83;114423;1193;64675;-87
2021/03/24 09:36:48;;;;;;;39.20;23.40;;;;;;;8.14;68.73;99800.09;114479;1191;64346;-85
2021/03/24 09:39:43;;;;;;;38.95;24.75;;;;;;;8.01;68.44;99801.64;114391;1192;64372;-84
2021/03/24 09:42:29;;;;;;;;;;;;;;;8.15;68.57;99801.84;114431;1199;64375;-85
2021/03/24 09:45:06;;;;;;;41.27;25.03;;;;;;;8.22;68.44;99797.93;114396;1192;64448;-84
2021/03/24 09:48:07;;;;;;;39.37;25.27;;;;;;;8.23;68.41;99799.65;114450;1193;64468;-83
2021/03/24 09:51:00;;;;;;;41.95;25.40;;;;;;;8.39;68.94;99795.28;114452;1193;64355;-85
2021/03/24 09:53:30;;;;;;;48.87;27.43;;;;;;;8.68;69.41;99795.58;114364;1193;64344;-88
2021/03/24 09:56:03;;;;;;;41.47;25.23;;;;;;;8.83;68.54;99791.23;114433;1192;64371;-86
2021/03/24 09:58:41;;;;;;;42.63;25.87;;;;;;;8.80;67.87;99792.28;114336;1193;64340;-85
2021/03/24 10:01:10;;;;;;;41.40;25.53;;;;;;;8.65;67.77;99795.73;114374;1193;64352;-85
2021/03/24 10:04:04;;;;;;;41.57;26.60;;;;;;;8.52;68.39;99789.32;114407;1193;64324;-87
2021/03/24 10:06:37;;;;;;;39.80;26.85;;;;;;;8.56;68.18;99790.90;114519;1193;64356;-90
2021/03/24 10:09:19;;;;;;;37.97;27.50;;;;;;;8.61;68.01;99783.53;114414;1193;64391;-85
2021/03/24 10:12:05;;;;;;;37.67;24.87;;;;;;;8.60;67.26;99789.81;114334;1193;64388;-86
2021/03/24 10:14:53;;;;;;;44.37;29.73;;;;;;;8.58;67.43;99779.22;114377;1193;64343;-85
2021/03/24 10:17:57;;;;;;;42.00;28.07;;;;;;;8.71;67.81;99771.44;114401;1193;64349;-86
2021/03/24 10:20:50;;;;;;;42.03;29.57;;;;;;;8.93;67.49;99771.17;114355;1192;64430;-84
2021/03/24 10:23:29;;;;;;;46.70;27.53;;;;;;;9.09;67.16;99768.52;114435;1193;64497;-86
2021/03/24 10:26:28;;;;;;;40.87;26.80;;;;;;;9.26;67.34;99763.13;114387;1192;64391;-85
2021/03/24 10:28:59;;;;;;;47.70;30.80;;;;;;;9.37;67.07;99767.88;114530;1193;64350;-85
2021/03/24 10:31:35;;;;;;;68.83;30.37;;;;;;;9.41;67.63;99764.08;114535;1193;64372;-88
2021/03/24 10:34:23;;;;;;;44.73;29.97;;;;;;;9.61;67.09;99754.98;114353;1193;64333;-86
2021/03/24 10:36:56;;;;;;;43.15;29.70;;;;;;;9.58;66.66;99755.99;114407;1193;64388;-86
2021/03/24 10:39:36;;;;;;;42.33;29.70;;;;;;;9.60;66.66;99754.09;114428;1193;64349;-85
2021/03/24 10:42:44;;;;;;;45.93;30.57;;;;;;;9.74;66.65;99750.66;114417;1193;64359;-86
2021/03/24 10:45:29;;;;;;;46.00;29.70;;;;;;;9.86;66.70;99752.62;114379;1193;64451;-88
2021/03/24 10:48:28;;;;;;;40.30;30.17;;;;;;;9.93;66.71;99750.45;114461;1193;64340;-88
2021/03/24 10:51:10;;;;;;;44.20;30.15;;;;;;;10.03;66.00;99752.47;114395;1193;64420;-87
2021/03/24 10:53:36;;;;;;;46.90;31.83;;;;;;;9.84;66.19;99750.97;114395;1192;64452;-85
2021/03/24 10:56:17;;;;;;;45.03;30.87;;;;;;;9.78;66.16;99752.18;114400;1193;64376;-86
2021/03/24 10:59:09;;;;;;;52.65;32.55;;;;;;;9.81;66.91;99746.69;114399;1193;64340;-85
2021/03/24 11:01:56;;;;;;;48.20;33.15;;;;;;;9.86;66.28;99741.95;114468;1192;64394;-86
2021/03/24 11:04:44;;;;;;;48.70;32.57;;;;;;;9.85;66.69;99744.68;114426;1193;64355;-86
2021/03/24 11:07:34;;;;;;;46.30;31.85;;;;;;;9.83;66.53;99741.25;114462;1193;64317;-87
2021/03/24 11:10:34;;;;;;;46.33;32.33;;;;;;;9.79;66.26;99743.23;114485;1193;64369;-88
2021/03/24 11:13:10;;;;;;;52.07;36.07;;;;;;;9.79;66.39;99743.23;114457;1193;64359;-86
2021/03/24 11:15:37;;;;;;;47.70;33.80;;;;;;;9.77;66.36;99744.27;114375;1192;64430;-87
2021/03/24 11:18:12;;;;;;;47.97;32.47;;;;;;;9.73;66.19;99739.13;114446;1193;64583;-85
2021/03/24 11:20:42;;;;;;;57.97;35.97;;;;;;;9.63;66.21;99735.27;114463;1193;64395;-84
2021/03/24 11:23:19;;;;;;;49.60;33.70;;;;;;;9.68;66.40;99740.34;114567;1193;64388;-86
2021/03/24 11:26:02;;;;;;;51.77;32.43;;;;;;;9.75;66.53;99734.56;114592;1193;64452;-86
2021/03/24 11:28:34;;;;;;;59.97;36.53;;;;;;;9.91;66.39;99730.98;114502;1193;64455;-85
2021/03/24 11:31:17;;;;;;;52.00;35.13;;;;;;;9.97;65.83;99725.29;114609;1193;64484;-84
2021/03/24 11:34:04;;;;;;;51.63;33.80;;;;;;;10.01;66.10;99722.36;114471;1193;64337;-85
2021/03/24 11:36:40;;;;;;;55.63;34.00;;;;;;;10.14;66.53;99730.50;114509;1193;64356;-88
2021/03/24 11:39:27;;;;;;;62.03;37.90;;;;;;;10.31;66.61;99718.85;114453;1193;64462;-86
2021/03/24 11:42:17;;;;;;;49.80;32.40;;;;;;;10.41;65.84;99719.99;114418;1192;64422;-85
2021/03/24 11:44:47;;;;;;;50.30;32.90;;;;;;;10.32;66.11;99720.56;114479;1193;64523;-85
2021/03/24 11:47:59;;;;;;;47.80;32.37;;;;;;;10.42;65.15;99719.03;114511;1193;64385;-86
2021/03/24 11:50:34;;;;;;;53.90;33.85;;;;;;;10.46;65.08;99709.89;114339;1196;64877;-84
2021/03/24 11:53:22;;;;;;;43.50;29.40;;;;;;;10.46;64.97;99706.38;114305;1196;64321;-84
2021/03/24 11:55:58;;;;;;;43.93;29.70;;;;;;;10.49;64.94;99703.50;114140;1195;64340;-86
2021/03/24 11:58:46;;;;;;;48.60;31.67;;;;;;;10.57;64.85;99708.39;114184;1196;64579;-85
2021/03/24 12:01:41;;;;;;;50.67;32.37;;;;;;;10.67;65.23;99696.16;114206;1196;64439;-86
2021/03/24 12:04:10;;;;;;;48.70;31.07;;;;;;;10.79;64.91;99690.91;114090;1196;64513;-88
2021/03/24 12:06:47;;;;;;;46.30;31.60;;;;;;;10.90;64.91;99684.91;114179;1196;64372;-85
2021/03/24 12:09:25;;;;;;;44.80;31.70;;;;;;;10.93;64.84;99681.16;114224;1196;64366;-86
2021/03/24 12:12:09;;;;;;;47.15;31.60;;;;;;;10.89;64.18;99677.84;114299;1196;64315;-85